EDT,Max TemperatureF,Mean TemperatureF,Min TemperatureF,Max Dew PointF,MeanDew PointF,Min DewpointF,Max Humidity, Mean Humidity, Min Humidity, Max Sea Level PressureIn, Mean Sea Level PressureIn, Min Sea Level PressureIn, Max VisibilityMiles, Mean VisibilityMiles, Min VisibilityMiles, Max Wind SpeedMPH, Mean Wind SpeedMPH, Max Gust SpeedMPH,PrecipitationIn, CloudCover, Events, WindDirDegrees
2013-8-1,77,68,59,64,60,55,94,78,57,29.99,29.94,29.90,10,9,2,15,7,18,0.17,5,,259
2013-8-2,73,63,53,61,55,52,94,74,50,30.02,29.97,29.94,10,8,0,17,6,24,0.05,3,,228
2013-8-3,77,67,55,63,57,48,94,71,43,30.04,30.00,29.95,10,9,5,10,7,20,0.03,4,,280
2013-8-4,69,61,53,55,52,48,94,75,46,30.14,30.09,30.03,10,10,10,13,5,22,0.08,4,,306
2013-8-5,71,60,48,52,48,45,94,68,43,30.17,30.12,30.07,10,9,0,9,2,,0.00,1,,275
2013-8-6,78,66,53,57,53,48,94,67,41,30.09,30.06,30.04,10,10,10,12,3,,0.00,4,,132
2013-8-7,80,70,60,64,61,55,94,81,58,30.05,30.02,29.96,10,10,3,28,8,40,0.59,2,Thunderstorm,157
2013-8-8,75,70,64,72,67,63,100,91,83,30.05,30.01,29.98,10,6,0,9,5,,0.17,7,Thunderstorm,187
2013-8-9,75,67,57,66,62,52,100,83,57,30.06,29.98,29.95,10,6,0,8,3,,0.30,5,,286
2013-8-10,75,65,55,57,54,50,94,69,50,30.17,30.12,30.06,10,10,10,10,4,,0.00,3,,307
2013-8-11,78,68,57,57,55,52,88,67,44,30.19,30.15,30.10,10,10,10,7,2,,0.00,5,,358
2013-8-12,75,65,55,63,59,54,94,80,57,30.12,30.06,29.92,10,10,2,9,2,,0.00,4,,198
2013-8-13,69,61,51,63,56,45,94,78,59,30.00,29.91,29.84,10,9,0,15,5,23,0.48,6,Thunderstorm,296
2013-8-14,66,57,48,50,47,45,93,73,49,30.18,30.08,29.99,10,10,4,5,0,,0.01,5,,316
2013-8-15,69,56,44,52,48,43,93,70,43,30.24,30.19,30.16,10,10,0,8,2,,0.00,1,,252
2013-8-16,73,60,48,55,50,46,100,70,38,30.24,30.21,30.17,10,9,0,7,2,,0.00,2,,54
2013-8-17,77,64,51,55,53,48,94,69,44,30.32,30.28,30.25,10,10,3,12,5,,0.00,2,,89
2013-8-18,73,64,55,61,57,54,94,79,61,30.28,30.24,30.19,10,10,6,8,4,,0.00,3,,122
2013-8-19,78,69,59,64,60,57,94,80,54,30.20,30.16,30.12,10,10,3,10,2,,0.00,5,,238
2013-8-20,80,66,53,63,59,54,100,75,47,30.24,30.20,30.15,10,8,0,9,3,,0.00,2,,225
2013-8-21,82,70,57,64,60,55,94,73,45,30.26,30.20,30.12,10,9,2,8,2,,0.00,1,,204
2013-8-22,80,71,62,66,64,61,94,79,61,30.15,30.09,30.03,10,9,2,13,6,20,0.00,1,,235
2013-8-23,78,68,57,63,56,48,100,68,34,30.23,30.12,30.05,10,9,0,13,3,,0.00,2,,359
2013-8-24,78,64,50,55,49,45,94,64,30,30.37,30.32,30.24,10,9,0,7,4,,0.00,0,,50
2013-8-25,80,66,51,59,54,48,94,67,39,30.41,30.35,30.27,10,10,9,10,3,,0.00,0,,214
2013-8-26,82,72,62,66,60,55,88,69,48,30.29,30.18,30.06,10,10,7,13,8,18,0.26,1,Thunderstorm,221
2013-8-27,78,72,66,70,67,64,94,86,69,30.06,30.02,29.98,10,8,1,10,5,,0.28,5,,185
2013-8-28,75,72,68,70,68,66,100,92,83,30.00,29.93,29.88,10,6,2,13,5,18,2.13,6,Thunderstorm,114
2013-8-29,84,74,64,66,64,61,100,76,48,30.11,30.07,30.00,10,7,0,7,3,,0.00,4,,10
2013-8-30,82,71,60,68,64,59,100,78,54,30.09,30.00,29.89,10,8,0,10,4,,0.00,2,,211
2013-8-31,82,76,69,70,68,64,88,78,62,29.91,29.87,29.84,10,10,5,12,7,,0.00,3,,246